DWI6426 MDPC-SACO
Flight info
| Callsign | DWI6426 |
|---|---|
| Flight time | 4h 42m |
| Altitude | 33000 |
| Route | POKAK2T POKAK UL216 BEXER/N0468F340 UL325 TAKEK/N0468F350 UL793 KAKER/N0468F340 UL793 DAVEX UL216 PAY/N0467F350 UL216 AKPEP UL309 DODSU/N0462F370 UL309 RCO UN525 DONKA DONKA1Q |
| Aircraft | B38M/M-SDE1FGHILORVWXY/HB1 |
Departure
| Time | 2026-04-27 17:26 |
|---|---|
| Airport | Punta Cana International Airport (MDPC) |
Arrival
| Time | 2026-04-27 22:09 |
|---|---|
| Airport | Ingeniero Aeronáutico Ambrosio L.V. Taravella International Airport (SACO) |
| Time | Latitude | Longitude | Altitude | Speed | Heading |
|---|---|---|---|---|---|
| 2026-04-27 17:08 | 18.56416 | -68.37260 | 53 ft | 0 kts | 174° |
| 2026-04-27 17:17 | 18.56438 | -68.37262 | 51 ft | 4 kts | 174° |
| 2026-04-27 17:18 | 18.56480 | -68.37246 | 53 ft | 4 kts | 255° |
| 2026-04-27 17:18 | 18.56483 | -68.37224 | 53 ft | 4 kts | 265° |
| 2026-04-27 17:18 | 18.56484 | -68.37210 | 53 ft | 2 kts | 265° |
| 2026-04-27 17:20 | 18.56484 | -68.37212 | 53 ft | 1 kts | 265° |
| 2026-04-27 17:21 | 18.56481 | -68.37239 | 53 ft | 6 kts | 264° |
| 2026-04-27 17:21 | 18.56476 | -68.37300 | 51 ft | 10 kts | 265° |
| 2026-04-27 17:21 | 18.56469 | -68.37386 | 53 ft | 12 kts | 265° |
| 2026-04-27 17:21 | 18.56463 | -68.37464 | 53 ft | 9 kts | 263° |
| 2026-04-27 17:22 | 18.56458 | -68.37526 | 53 ft | 8 kts | 264° |
| 2026-04-27 17:22 | 18.56451 | -68.37595 | 53 ft | 11 kts | 264° |
| 2026-04-27 17:22 | 18.56445 | -68.37687 | 53 ft | 15 kts | 266° |
| 2026-04-27 17:22 | 18.56491 | -68.37783 | 53 ft | 18 kts | 350° |
| 2026-04-27 17:23 | 18.56616 | -68.37794 | 52 ft | 17 kts | 355° |
| 2026-04-27 17:23 | 18.56702 | -68.37855 | 53 ft | 15 kts | 297° |
| 2026-04-27 17:23 | 18.56740 | -68.37948 | 51 ft | 13 kts | 297° |
| 2026-04-27 17:23 | 18.56777 | -68.38028 | 52 ft | 12 kts | 296° |
| 2026-04-27 17:24 | 18.56809 | -68.38102 | 47 ft | 10 kts | 291° |
| 2026-04-27 17:24 | 18.56834 | -68.38166 | 51 ft | 9 kts | 293° |
| 2026-04-27 17:24 | 18.56861 | -68.38220 | 51 ft | 8 kts | 310° |
| 2026-04-27 17:24 | 18.56922 | -68.38261 | 53 ft | 13 kts | 346° |
| 2026-04-27 17:25 | 18.56980 | -68.38278 | 49 ft | 8 kts | 348° |
| 2026-04-27 17:25 | 18.57032 | -68.38259 | 52 ft | 9 kts | 47° |
| 2026-04-27 17:25 | 18.57055 | -68.38209 | 52 ft | 7 kts | 74° |
| 2026-04-27 17:25 | 18.57097 | -68.38053 | 52 ft | 54 kts | 75° |
| 2026-04-27 17:26 | 18.57262 | -68.37437 | 52 ft | 120 kts | 72° |
| 2026-04-27 17:26 | 18.57547 | -68.36405 | 63 ft | 169 kts | 76° |
| 2026-04-27 17:26 | 18.57897 | -68.35159 | 590 ft | 181 kts | 77° |
| 2026-04-27 17:26 | 18.58270 | -68.33785 | 1047 ft | 209 kts | 76° |
| 2026-04-27 17:27 | 18.58689 | -68.32259 | 1650 ft | 225 kts | 76° |
| 2026-04-27 17:27 | 18.58997 | -68.30660 | 2515 ft | 224 kts | 92° |
| 2026-04-27 17:27 | 18.58622 | -68.29044 | 2946 ft | 238 kts | 126° |
| 2026-04-27 17:27 | 18.57343 | -68.27897 | 3395 ft | 253 kts | 156° |
| 2026-04-27 17:28 | 18.55746 | -68.27012 | 3986 ft | 265 kts | 151° |
| 2026-04-27 17:28 | 18.54155 | -68.26027 | 4840 ft | 268 kts | 151° |
| 2026-04-27 17:28 | 18.50553 | -68.25429 | 6454 ft | 266 kts | 185° |
| 2026-04-27 17:29 | 18.48672 | -68.25619 | 7107 ft | 275 kts | 186° |
| 2026-04-27 17:29 | 18.46766 | -68.25832 | 7915 ft | 275 kts | 187° |
| 2026-04-27 17:29 | 18.44869 | -68.26054 | 8660 ft | 279 kts | 187° |
| 2026-04-27 17:29 | 18.42925 | -68.26291 | 9419 ft | 282 kts | 187° |
| 2026-04-27 17:30 | 18.40961 | -68.26534 | 10151 ft | 285 kts | 188° |
| 2026-04-27 17:30 | 18.36864 | -68.27050 | 10941 ft | 314 kts | 188° |
| 2026-04-27 17:30 | 18.34629 | -68.27332 | 11220 ft | 331 kts | 188° |
| 2026-04-27 17:31 | 18.32299 | -68.27627 | 11569 ft | 343 kts | 188° |
| 2026-04-27 17:31 | 18.29950 | -68.27925 | 12246 ft | 342 kts | 188° |
| 2026-04-27 17:31 | 18.27561 | -68.28228 | 12878 ft | 345 kts | 188° |
| 2026-04-27 17:31 | 18.25188 | -68.28528 | 13455 ft | 348 kts | 188° |
| 2026-04-27 17:32 | 18.22762 | -68.28834 | 14008 ft | 352 kts | 188° |
| 2026-04-27 17:32 | 18.17881 | -68.29452 | 15008 ft | 357 kts | 189° |
| 2026-04-27 17:32 | 18.15398 | -68.29765 | 15501 ft | 360 kts | 189° |
| 2026-04-27 17:33 | 18.12891 | -68.30082 | 15988 ft | 362 kts | 189° |
| 2026-04-27 17:33 | 18.10375 | -68.30400 | 16457 ft | 365 kts | 189° |
| 2026-04-27 17:33 | 18.07871 | -68.30716 | 16921 ft | 368 kts | 189° |
| 2026-04-27 17:33 | 18.05304 | -68.31040 | 17372 ft | 370 kts | 189° |
| 2026-04-27 17:34 | 18.02753 | -68.31362 | 17814 ft | 373 kts | 189° |
| 2026-04-27 17:34 | 18.00163 | -68.31689 | 18256 ft | 375 kts | 189° |
| 2026-04-27 17:34 | 17.97549 | -68.32019 | 18631 ft | 378 kts | 189° |
| 2026-04-27 17:34 | 17.94931 | -68.32349 | 19010 ft | 380 kts | 189° |
| 2026-04-27 17:35 | 17.92332 | -68.32676 | 19378 ft | 381 kts | 189° |
| 2026-04-27 17:35 | 17.89680 | -68.33011 | 19742 ft | 383 kts | 189° |
| 2026-04-27 17:35 | 17.87007 | -68.33347 | 20098 ft | 385 kts | 189° |
| 2026-04-27 17:35 | 17.84351 | -68.33682 | 20467 ft | 387 kts | 189° |
| 2026-04-27 17:36 | 17.82567 | -68.33907 | 20703 ft | 388 kts | 189° |
| 2026-04-27 17:36 | 17.78992 | -68.34357 | 21177 ft | 391 kts | 189° |
| 2026-04-27 17:36 | 17.77169 | -68.34586 | 21405 ft | 392 kts | 189° |
| 2026-04-27 17:36 | 17.74471 | -68.34925 | 21764 ft | 394 kts | 189° |
| 2026-04-27 17:37 | 17.71727 | -68.35270 | 22115 ft | 396 kts | 189° |
| 2026-04-27 17:37 | 17.68074 | -68.35730 | 22580 ft | 399 kts | 190° |
| 2026-04-27 17:37 | 17.66203 | -68.35965 | 22815 ft | 400 kts | 190° |
| 2026-04-27 17:37 | 17.63464 | -68.36309 | 23140 ft | 402 kts | 190° |
| 2026-04-27 17:38 | 17.60680 | -68.36659 | 23482 ft | 404 kts | 190° |
| 2026-04-27 17:38 | 17.57867 | -68.37012 | 23783 ft | 406 kts | 190° |
| 2026-04-27 17:38 | 17.55078 | -68.37362 | 24065 ft | 408 kts | 190° |
| 2026-04-27 17:38 | 17.52242 | -68.37718 | 24351 ft | 410 kts | 190° |
| 2026-04-27 17:39 | 17.49401 | -68.38075 | 24643 ft | 411 kts | 190° |
| 2026-04-27 17:39 | 17.46538 | -68.38434 | 24917 ft | 413 kts | 190° |
| 2026-04-27 17:39 | 17.43702 | -68.38789 | 25196 ft | 415 kts | 190° |
| 2026-04-27 17:39 | 17.40814 | -68.39151 | 25477 ft | 417 kts | 190° |
| 2026-04-27 17:40 | 17.37931 | -68.39513 | 25751 ft | 419 kts | 190° |
| 2026-04-27 17:40 | 17.35058 | -68.39873 | 26008 ft | 420 kts | 190° |
| 2026-04-27 17:40 | 17.32147 | -68.40237 | 26288 ft | 422 kts | 190° |
| 2026-04-27 17:40 | 17.29214 | -68.40604 | 26562 ft | 424 kts | 190° |
| 2026-04-27 17:41 | 17.26269 | -68.40973 | 26824 ft | 426 kts | 190° |
| 2026-04-27 17:41 | 17.23348 | -68.41338 | 27078 ft | 428 kts | 190° |
| 2026-04-27 17:41 | 17.20372 | -68.41710 | 27337 ft | 429 kts | 190° |
| 2026-04-27 17:41 | 17.17386 | -68.42084 | 27596 ft | 431 kts | 190° |
| 2026-04-27 17:42 | 17.14433 | -68.42453 | 27843 ft | 433 kts | 190° |
| 2026-04-27 17:42 | 17.11423 | -68.42829 | 28082 ft | 435 kts | 190° |
| 2026-04-27 17:42 | 17.08402 | -68.43206 | 28327 ft | 437 kts | 190° |
| 2026-04-27 17:42 | 17.05371 | -68.43585 | 28568 ft | 438 kts | 190° |
| 2026-04-27 17:43 | 17.02371 | -68.43959 | 28792 ft | 440 kts | 190° |
| 2026-04-27 17:43 | 16.99303 | -68.44342 | 29019 ft | 442 kts | 190° |
| 2026-04-27 17:43 | 16.96230 | -68.44725 | 29243 ft | 444 kts | 190° |
| 2026-04-27 17:43 | 16.93196 | -68.45104 | 29462 ft | 445 kts | 190° |
| 2026-04-27 17:44 | 16.90107 | -68.45489 | 29674 ft | 447 kts | 190° |
| 2026-04-27 17:44 | 16.87011 | -68.45874 | 29891 ft | 449 kts | 190° |
| 2026-04-27 17:44 | 16.83887 | -68.46264 | 30107 ft | 450 kts | 190° |
| 2026-04-27 17:44 | 16.80778 | -68.46651 | 30277 ft | 452 kts | 190° |
| 2026-04-27 17:45 | 16.77620 | -68.47044 | 30489 ft | 453 kts | 190° |
| 2026-04-27 17:45 | 16.74524 | -68.47429 | 30691 ft | 453 kts | 190° |
| 2026-04-27 17:45 | 16.71374 | -68.47821 | 30884 ft | 454 kts | 190° |
| 2026-04-27 17:45 | 16.68264 | -68.48208 | 31072 ft | 455 kts | 190° |
| 2026-04-27 17:46 | 16.65100 | -68.48601 | 31315 ft | 454 kts | 190° |
| 2026-04-27 17:46 | 16.61999 | -68.48987 | 31588 ft | 453 kts | 190° |
| 2026-04-27 17:46 | 16.58860 | -68.49377 | 31876 ft | 451 kts | 190° |
| 2026-04-27 17:46 | 16.55737 | -68.49765 | 32161 ft | 450 kts | 190° |
| 2026-04-27 17:47 | 16.52659 | -68.50147 | 32461 ft | 448 kts | 190° |
| 2026-04-27 17:47 | 16.50568 | -68.50406 | 32650 ft | 447 kts | 190° |
| 2026-04-27 17:47 | 16.46478 | -68.50914 | 32992 ft | 445 kts | 190° |
| 2026-04-27 17:48 | 16.40359 | -68.51673 | 33013 ft | 443 kts | 190° |
| 2026-04-27 17:48 | 16.34224 | -68.52433 | 33008 ft | 443 kts | 190° |
| 2026-04-27 17:49 | 16.28098 | -68.53192 | 33008 ft | 443 kts | 189° |
| 2026-04-27 17:49 | 16.21978 | -68.53950 | 33005 ft | 444 kts | 189° |
| 2026-04-27 17:50 | 16.15872 | -68.54705 | 33007 ft | 444 kts | 189° |
| 2026-04-27 17:50 | 16.06643 | -68.55846 | 33000 ft | 445 kts | 189° |
| 2026-04-27 17:51 | 16.00512 | -68.56494 | 32988 ft | 447 kts | 180° |
| 2026-04-27 17:51 | 15.94315 | -68.55408 | 32993 ft | 452 kts | 172° |
| 2026-04-27 17:52 | 15.88140 | -68.54139 | 32999 ft | 453 kts | 172° |
| 2026-04-27 17:52 | 15.81955 | -68.52830 | 32997 ft | 453 kts | 172° |
| 2026-04-27 17:53 | 15.75789 | -68.51521 | 32997 ft | 453 kts | 171° |
| 2026-04-27 17:53 | 15.69629 | -68.50214 | 33000 ft | 453 kts | 171° |
| 2026-04-27 17:54 | 15.63437 | -68.48901 | 32991 ft | 453 kts | 171° |
| 2026-04-27 17:54 | 15.57278 | -68.47595 | 32997 ft | 453 kts | 171° |
| 2026-04-27 17:55 | 15.51119 | -68.46291 | 32993 ft | 452 kts | 171° |
| 2026-04-27 17:55 | 15.44970 | -68.44989 | 32997 ft | 452 kts | 171° |
| 2026-04-27 17:56 | 15.38809 | -68.43686 | 32993 ft | 452 kts | 171° |
| 2026-04-27 17:56 | 15.32618 | -68.42377 | 32991 ft | 452 kts | 171° |
| 2026-04-27 17:57 | 15.26481 | -68.41080 | 32995 ft | 452 kts | 171° |
| 2026-04-27 17:57 | 15.20287 | -68.39777 | 32995 ft | 452 kts | 172° |
| 2026-04-27 17:58 | 15.14142 | -68.38500 | 32987 ft | 452 kts | 172° |
| 2026-04-27 17:58 | 15.07972 | -68.37218 | 32986 ft | 452 kts | 172° |
| 2026-04-27 17:59 | 15.01834 | -68.35942 | 32987 ft | 452 kts | 172° |
| 2026-04-27 17:59 | 14.95685 | -68.34665 | 32984 ft | 451 kts | 172° |
| 2026-04-27 18:00 | 14.89521 | -68.33386 | 32984 ft | 451 kts | 172° |
| 2026-04-27 18:00 | 14.83352 | -68.32106 | 32987 ft | 451 kts | 172° |
| 2026-04-27 18:01 | 14.77218 | -68.30834 | 32987 ft | 451 kts | 171° |
| 2026-04-27 18:01 | 14.71054 | -68.29549 | 32983 ft | 450 kts | 171° |
| 2026-04-27 18:02 | 14.64929 | -68.28268 | 32983 ft | 450 kts | 171° |
| 2026-04-27 18:02 | 14.58817 | -68.26991 | 32984 ft | 450 kts | 171° |
| 2026-04-27 18:03 | 14.52660 | -68.25706 | 32978 ft | 450 kts | 171° |
| 2026-04-27 18:03 | 14.46536 | -68.24428 | 32977 ft | 450 kts | 171° |
| 2026-04-27 18:04 | 14.40407 | -68.23150 | 32975 ft | 450 kts | 171° |
| 2026-04-27 18:04 | 14.34247 | -68.21866 | 32982 ft | 450 kts | 171° |
| 2026-04-27 18:05 | 14.28125 | -68.20591 | 32980 ft | 450 kts | 171° |
| 2026-04-27 18:05 | 14.21988 | -68.19374 | 32970 ft | 449 kts | 176° |
| 2026-04-27 18:06 | 14.18899 | -68.19483 | 32976 ft | 443 kts | 193° |
| 2026-04-27 18:06 | 14.15942 | -68.20408 | 32988 ft | 443 kts | 201° |
| 2026-04-27 18:06 | 14.10193 | -68.22661 | 32980 ft | 445 kts | 202° |
| 2026-04-27 18:07 | 14.04414 | -68.25031 | 32972 ft | 445 kts | 202° |
| 2026-04-27 18:07 | 13.98685 | -68.27411 | 32972 ft | 445 kts | 202° |
| 2026-04-27 18:08 | 13.92941 | -68.29799 | 32974 ft | 445 kts | 202° |
| 2026-04-27 18:08 | 13.87218 | -68.32178 | 32974 ft | 445 kts | 202° |
| 2026-04-27 18:09 | 13.81473 | -68.34563 | 32998 ft | 448 kts | 202° |
| 2026-04-27 18:09 | 13.78590 | -68.35757 | 33254 ft | 446 kts | 202° |
| 2026-04-27 18:09 | 13.75703 | -68.36953 | 33497 ft | 446 kts | 202° |
| 2026-04-27 18:10 | 13.72812 | -68.38150 | 33728 ft | 446 kts | 202° |
| 2026-04-27 18:10 | 13.69958 | -68.39332 | 33973 ft | 445 kts | 202° |
| 2026-04-27 18:10 | 13.67099 | -68.40516 | 34170 ft | 445 kts | 202° |
| 2026-04-27 18:10 | 13.64205 | -68.41713 | 34372 ft | 444 kts | 202° |
| 2026-04-27 18:11 | 13.61334 | -68.42901 | 34569 ft | 444 kts | 202° |
| 2026-04-27 18:11 | 13.58500 | -68.44074 | 34763 ft | 443 kts | 202° |
| 2026-04-27 18:11 | 13.55635 | -68.45258 | 34933 ft | 442 kts | 202° |
| 2026-04-27 18:11 | 13.52769 | -68.46443 | 34958 ft | 442 kts | 202° |
| 2026-04-27 18:12 | 13.47082 | -68.48792 | 34958 ft | 441 kts | 202° |
| 2026-04-27 18:12 | 13.41222 | -68.50524 | 34956 ft | 442 kts | 182° |
| 2026-04-27 18:13 | 13.38146 | -68.50235 | 34974 ft | 446 kts | 171° |
| 2026-04-27 18:13 | 13.35115 | -68.49625 | 34958 ft | 448 kts | 171° |
| 2026-04-27 18:13 | 13.29006 | -68.48298 | 34955 ft | 449 kts | 169° |
| 2026-04-27 18:14 | 13.22918 | -68.46906 | 34957 ft | 449 kts | 169° |
| 2026-04-27 18:14 | 13.16801 | -68.45494 | 34960 ft | 449 kts | 169° |
| 2026-04-27 18:15 | 13.10726 | -68.44092 | 34951 ft | 449 kts | 169° |
| 2026-04-27 18:15 | 13.04665 | -68.42692 | 34953 ft | 449 kts | 169° |
| 2026-04-27 18:16 | 12.98545 | -68.41281 | 34955 ft | 449 kts | 169° |
| 2026-04-27 18:16 | 12.92482 | -68.39883 | 34957 ft | 449 kts | 169° |
| 2026-04-27 18:17 | 12.86369 | -68.38474 | 34956 ft | 449 kts | 169° |
| 2026-04-27 18:17 | 12.80277 | -68.37071 | 34954 ft | 448 kts | 169° |
| 2026-04-27 18:18 | 12.74196 | -68.35673 | 34959 ft | 449 kts | 169° |
| 2026-04-27 18:18 | 12.68124 | -68.34277 | 34963 ft | 449 kts | 169° |
| 2026-04-27 18:19 | 12.62011 | -68.32873 | 34954 ft | 449 kts | 169° |
| 2026-04-27 18:19 | 12.55934 | -68.31478 | 34956 ft | 449 kts | 169° |
| 2026-04-27 18:20 | 12.49862 | -68.30084 | 34954 ft | 449 kts | 169° |
| 2026-04-27 18:20 | 12.43767 | -68.28686 | 34954 ft | 449 kts | 169° |
| 2026-04-27 18:21 | 12.37647 | -68.27283 | 34960 ft | 449 kts | 169° |
| 2026-04-27 18:21 | 12.31537 | -68.25883 | 34958 ft | 449 kts | 169° |
| 2026-04-27 18:22 | 12.25467 | -68.24492 | 34970 ft | 449 kts | 169° |
| 2026-04-27 18:22 | 12.20384 | -68.23328 | 34970 ft | 449 kts | 169° |
| 2026-04-27 18:23 | 12.13268 | -68.21700 | 34964 ft | 450 kts | 169° |
| 2026-04-27 18:23 | 12.08188 | -68.20542 | 34957 ft | 450 kts | 169° |
| 2026-04-27 18:24 | 12.01071 | -68.18922 | 34967 ft | 450 kts | 169° |
| 2026-04-27 18:24 | 11.95970 | -68.17762 | 34960 ft | 450 kts | 169° |
| 2026-04-27 18:25 | 11.88842 | -68.16141 | 34955 ft | 450 kts | 169° |
| 2026-04-27 18:25 | 11.82725 | -68.14804 | 34948 ft | 450 kts | 171° |
| 2026-04-27 18:26 | 11.74192 | -68.13182 | 34945 ft | 450 kts | 171° |
| 2026-04-27 18:26 | 11.61922 | -68.10787 | 34939 ft | 450 kts | 171° |
| 2026-04-27 18:27 | 11.49617 | -68.08435 | 34941 ft | 450 kts | 171° |
| 2026-04-27 18:27 | 11.39352 | -68.06435 | 34936 ft | 451 kts | 171° |
| 2026-04-27 18:28 | 11.27007 | -68.04025 | 34939 ft | 451 kts | 171° |
| 2026-04-27 18:28 | 11.14676 | -68.01660 | 34933 ft | 451 kts | 171° |
| 2026-04-27 18:29 | 11.02299 | -67.99284 | 34930 ft | 451 kts | 170° |
| 2026-04-27 18:29 | 10.90048 | -67.96892 | 34932 ft | 451 kts | 171° |
| 2026-04-27 18:30 | 10.77663 | -67.94494 | 34932 ft | 451 kts | 171° |
| 2026-04-27 18:30 | 10.65382 | -67.92154 | 34939 ft | 451 kts | 170° |
| 2026-04-27 18:31 | 10.52965 | -67.89770 | 34949 ft | 451 kts | 170° |
| 2026-04-27 18:31 | 10.40659 | -67.87387 | 34967 ft | 451 kts | 171° |
| 2026-04-27 18:32 | 10.32664 | -67.85871 | 34967 ft | 451 kts | 170° |
| 2026-04-27 18:32 | 10.23221 | -67.84055 | 34995 ft | 451 kts | 170° |
| 2026-04-27 18:33 | 10.10922 | -67.81704 | 34990 ft | 451 kts | 171° |
| 2026-04-27 18:33 | 9.98556 | -67.79298 | 34977 ft | 451 kts | 169° |
| 2026-04-27 18:34 | 9.89376 | -67.77546 | 34971 ft | 451 kts | 171° |
| 2026-04-27 18:34 | 9.77109 | -67.75189 | 34956 ft | 450 kts | 171° |
| 2026-04-27 18:35 | 9.64731 | -67.72827 | 34946 ft | 450 kts | 171° |
| 2026-04-27 18:35 | 9.52467 | -67.70510 | 34941 ft | 451 kts | 171° |
| 2026-04-27 18:36 | 9.43255 | -67.68743 | 34937 ft | 451 kts | 169° |
| 2026-04-27 18:36 | 9.30884 | -67.66359 | 34939 ft | 452 kts | 170° |
| 2026-04-27 18:37 | 9.18591 | -67.64037 | 34929 ft | 452 kts | 170° |
| 2026-04-27 18:37 | 9.06227 | -67.61688 | 34932 ft | 452 kts | 170° |
| 2026-04-27 18:38 | 8.96336 | -67.59791 | 34933 ft | 452 kts | 170° |
| 2026-04-27 18:38 | 8.84562 | -67.57538 | 34930 ft | 453 kts | 169° |
| 2026-04-27 18:39 | 8.72212 | -67.55183 | 34921 ft | 453 kts | 170° |
| 2026-04-27 18:39 | 8.59836 | -67.52845 | 34922 ft | 452 kts | 171° |
| 2026-04-27 18:40 | 8.47477 | -67.50461 | 34925 ft | 452 kts | 171° |
| 2026-04-27 18:40 | 8.35056 | -67.48136 | 34919 ft | 452 kts | 169° |
| 2026-04-27 18:41 | 8.22735 | -67.45786 | 34912 ft | 452 kts | 170° |
| 2026-04-27 18:41 | 8.10407 | -67.43443 | 34910 ft | 452 kts | 170° |
| 2026-04-27 18:42 | 8.00103 | -67.41486 | 34910 ft | 452 kts | 170° |
| 2026-04-27 18:42 | 7.85665 | -67.38758 | 34909 ft | 452 kts | 170° |
| 2026-04-27 18:43 | 7.73267 | -67.36427 | 34902 ft | 452 kts | 170° |
| 2026-04-27 18:43 | 7.60939 | -67.34084 | 34904 ft | 453 kts | 169° |
| 2026-04-27 18:44 | 7.48585 | -67.31761 | 34897 ft | 453 kts | 170° |
| 2026-04-27 18:44 | 7.36111 | -67.29365 | 34894 ft | 454 kts | 170° |
| 2026-04-27 18:45 | 7.24546 | -67.27174 | 34892 ft | 455 kts | 170° |
| 2026-04-27 18:45 | 7.14438 | -67.25280 | 34893 ft | 455 kts | 171° |
| 2026-04-27 18:46 | 7.01922 | -67.22945 | 34892 ft | 456 kts | 169° |
| 2026-04-27 18:46 | 6.89506 | -67.20607 | 34890 ft | 457 kts | 170° |
| 2026-04-27 18:47 | 6.76968 | -67.18224 | 34888 ft | 457 kts | 169° |
| 2026-04-27 18:47 | 6.64491 | -67.15879 | 34890 ft | 457 kts | 171° |
| 2026-04-27 18:48 | 6.53145 | -67.13745 | 34888 ft | 457 kts | 169° |
| 2026-04-27 18:48 | 6.42598 | -67.11750 | 34894 ft | 457 kts | 170° |
| 2026-04-27 18:49 | 6.30120 | -67.09402 | 34896 ft | 458 kts | 169° |
| 2026-04-27 18:49 | 6.17555 | -67.07042 | 34896 ft | 458 kts | 169° |
| 2026-04-27 18:50 | 6.05056 | -67.04691 | 34911 ft | 457 kts | 170° |
| 2026-04-27 18:50 | 5.92560 | -67.02347 | 34917 ft | 457 kts | 170° |
| 2026-04-27 18:51 | 5.80104 | -66.99977 | 34918 ft | 457 kts | 169° |
| 2026-04-27 18:51 | 5.70305 | -66.98178 | 34918 ft | 457 kts | 169° |
| 2026-04-27 18:52 | 5.58239 | -66.95932 | 34925 ft | 457 kts | 169° |
| 2026-04-27 18:53 | 5.39441 | -66.92399 | 34928 ft | 457 kts | 169° |
| 2026-04-27 18:53 | 5.27014 | -66.90028 | 34933 ft | 457 kts | 170° |
| 2026-04-27 18:54 | 5.14457 | -66.87684 | 34945 ft | 456 kts | 170° |
| 2026-04-27 18:54 | 5.01993 | -66.85351 | 34951 ft | 456 kts | 169° |
| 2026-04-27 18:55 | 4.89597 | -66.83005 | 34958 ft | 456 kts | 171° |
| 2026-04-27 18:55 | 4.77087 | -66.80682 | 34954 ft | 455 kts | 170° |
| 2026-04-27 18:56 | 4.64667 | -66.78359 | 34941 ft | 455 kts | 169° |
| 2026-04-27 18:56 | 4.54228 | -66.76432 | 34935 ft | 456 kts | 169° |
| 2026-04-27 18:57 | 4.44840 | -66.74678 | 34913 ft | 456 kts | 170° |
| 2026-04-27 18:57 | 4.32407 | -66.72322 | 34903 ft | 457 kts | 170° |
| 2026-04-27 18:58 | 4.19840 | -66.70000 | 34891 ft | 457 kts | 169° |
| 2026-04-27 18:58 | 4.07362 | -66.67641 | 34883 ft | 457 kts | 170° |
| 2026-04-27 18:59 | 3.94880 | -66.65335 | 34883 ft | 457 kts | 170° |
| 2026-04-27 18:59 | 3.82347 | -66.62991 | 34888 ft | 457 kts | 171° |
| 2026-04-27 19:00 | 3.69876 | -66.60632 | 34891 ft | 457 kts | 169° |
| 2026-04-27 19:00 | 3.57334 | -66.58326 | 34894 ft | 457 kts | 169° |
| 2026-04-27 19:01 | 3.44852 | -66.56026 | 34893 ft | 456 kts | 169° |
| 2026-04-27 19:01 | 3.32386 | -66.53690 | 34888 ft | 456 kts | 169° |
| 2026-04-27 19:02 | 3.19929 | -66.51339 | 34889 ft | 456 kts | 169° |
| 2026-04-27 19:02 | 3.07495 | -66.49002 | 34891 ft | 456 kts | 169° |
| 2026-04-27 19:03 | 2.94981 | -66.46709 | 34891 ft | 456 kts | 169° |
| 2026-04-27 19:03 | 2.82534 | -66.44386 | 34892 ft | 456 kts | 169° |
| 2026-04-27 19:04 | 2.72883 | -66.42577 | 34891 ft | 457 kts | 169° |
| 2026-04-27 19:04 | 2.60653 | -66.40259 | 34887 ft | 457 kts | 170° |
| 2026-04-27 19:05 | 2.48143 | -66.38000 | 34886 ft | 457 kts | 170° |
| 2026-04-27 19:05 | 2.35658 | -66.35635 | 34886 ft | 458 kts | 168° |
| 2026-04-27 19:06 | 2.23080 | -66.33298 | 34888 ft | 458 kts | 169° |
| 2026-04-27 19:06 | 2.10566 | -66.30985 | 34887 ft | 458 kts | 168° |
| 2026-04-27 19:07 | 1.97990 | -66.28637 | 34888 ft | 459 kts | 168° |
| 2026-04-27 19:07 | 1.85471 | -66.26330 | 34891 ft | 459 kts | 169° |
| 2026-04-27 19:08 | 1.72950 | -66.23975 | 34889 ft | 458 kts | 169° |
| 2026-04-27 19:08 | 1.60402 | -66.21646 | 34892 ft | 458 kts | 169° |
| 2026-04-27 19:09 | 1.47908 | -66.19315 | 34894 ft | 458 kts | 169° |
| 2026-04-27 19:09 | 1.35424 | -66.17006 | 34896 ft | 458 kts | 169° |
| 2026-04-27 19:10 | 1.22807 | -66.14640 | 34903 ft | 459 kts | 169° |
| 2026-04-27 19:10 | 1.10781 | -66.12420 | 34912 ft | 460 kts | 169° |
| 2026-04-27 19:11 | 1.04473 | -66.11248 | 34916 ft | 460 kts | 168° |
| 2026-04-27 19:11 | 0.98184 | -66.10079 | 34919 ft | 460 kts | 168° |
| 2026-04-27 19:12 | 0.91901 | -66.08911 | 34919 ft | 460 kts | 168° |
| 2026-04-27 19:12 | 0.85610 | -66.07742 | 34935 ft | 461 kts | 168° |
| 2026-04-27 19:13 | 0.79278 | -66.06682 | 34903 ft | 461 kts | 177° |
| 2026-04-27 19:13 | 0.72882 | -66.06675 | 34897 ft | 461 kts | 182° |
| 2026-04-27 19:14 | 0.66616 | -66.08031 | 34916 ft | 465 kts | 202° |
| 2026-04-27 19:14 | 0.63562 | -66.09096 | 34881 ft | 462 kts | 188° |
| 2026-04-27 19:14 | 0.60417 | -66.09530 | 34920 ft | 462 kts | 188° |
| 2026-04-27 19:15 | 0.52561 | -66.10882 | 34906 ft | 464 kts | 188° |
| 2026-04-27 19:15 | 0.39868 | -66.13074 | 34896 ft | 464 kts | 188° |
| 2026-04-27 19:16 | 0.29244 | -66.14873 | 34890 ft | 464 kts | 188° |
| 2026-04-27 19:16 | 0.16476 | -66.17043 | 34890 ft | 464 kts | 189° |
| 2026-04-27 19:17 | 0.03816 | -66.19236 | 34891 ft | 464 kts | 188° |
| 2026-04-27 19:17 | -0.08982 | -66.21442 | 34888 ft | 464 kts | 187° |
| 2026-04-27 19:18 | -0.21664 | -66.23585 | 34888 ft | 464 kts | 188° |
| 2026-04-27 19:18 | -0.34369 | -66.25753 | 34885 ft | 463 kts | 187° |
| 2026-04-27 19:19 | -0.47065 | -66.27926 | 34885 ft | 463 kts | 189° |
| 2026-04-27 19:19 | -0.59827 | -66.30115 | 34887 ft | 463 kts | 188° |
| 2026-04-27 19:20 | -0.72476 | -66.32277 | 34888 ft | 464 kts | 188° |
| 2026-04-27 19:20 | -0.85191 | -66.34473 | 34884 ft | 464 kts | 188° |
| 2026-04-27 19:21 | -0.97971 | -66.36627 | 34885 ft | 464 kts | 188° |
| 2026-04-27 19:21 | -1.10678 | -66.38822 | 34884 ft | 464 kts | 189° |
| 2026-04-27 19:22 | -1.23401 | -66.41006 | 34884 ft | 465 kts | 189° |
| 2026-04-27 19:22 | -1.36223 | -66.43166 | 34885 ft | 465 kts | 188° |
| 2026-04-27 19:23 | -1.48945 | -66.45346 | 34886 ft | 466 kts | 189° |
| 2026-04-27 19:23 | -1.61672 | -66.47563 | 34885 ft | 466 kts | 189° |
| 2026-04-27 19:24 | -1.74504 | -66.49736 | 34883 ft | 466 kts | 188° |
| 2026-04-27 19:24 | -1.87261 | -66.51925 | 34885 ft | 466 kts | 188° |
| 2026-04-27 19:25 | -2.00020 | -66.54138 | 34884 ft | 466 kts | 188° |
| 2026-04-27 19:25 | -2.12781 | -66.56289 | 34883 ft | 466 kts | 189° |
| 2026-04-27 19:26 | -2.25603 | -66.58452 | 34885 ft | 466 kts | 188° |
| 2026-04-27 19:26 | -2.38342 | -66.60689 | 34886 ft | 465 kts | 189° |
| 2026-04-27 19:27 | -2.51129 | -66.62863 | 34884 ft | 465 kts | 188° |
| 2026-04-27 19:27 | -2.63858 | -66.65042 | 34887 ft | 465 kts | 188° |
| 2026-04-27 19:28 | -2.76689 | -66.67249 | 34883 ft | 465 kts | 188° |
| 2026-04-27 19:28 | -2.89402 | -66.69457 | 34881 ft | 465 kts | 189° |
| 2026-04-27 19:29 | -2.97522 | -66.70810 | 34872 ft | 464 kts | 189° |
| 2026-04-27 19:29 | -3.07659 | -66.72574 | 34879 ft | 464 kts | 188° |
| 2026-04-27 19:30 | -3.20424 | -66.74737 | 34885 ft | 464 kts | 189° |
| 2026-04-27 19:30 | -3.28081 | -66.76063 | 34859 ft | 463 kts | 188° |
| 2026-04-27 19:31 | -3.35128 | -66.77270 | 34878 ft | 465 kts | 188° |
| 2026-04-27 19:31 | -3.47944 | -66.79478 | 34873 ft | 465 kts | 189° |
| 2026-04-27 19:32 | -3.57482 | -66.81138 | 34879 ft | 465 kts | 188° |
| 2026-04-27 19:32 | -3.67028 | -66.82748 | 34877 ft | 465 kts | 189° |
| 2026-04-27 19:33 | -3.79720 | -66.84943 | 34877 ft | 465 kts | 189° |
| 2026-04-27 19:33 | -3.92513 | -66.87132 | 34875 ft | 464 kts | 188° |
| 2026-04-27 19:34 | -4.05179 | -66.89284 | 34875 ft | 464 kts | 189° |
| 2026-04-27 19:34 | -4.17826 | -66.91507 | 34873 ft | 463 kts | 188° |
| 2026-04-27 19:35 | -4.30549 | -66.93683 | 34872 ft | 462 kts | 188° |
| 2026-04-27 19:35 | -4.42403 | -66.95679 | 34873 ft | 462 kts | 189° |
| 2026-04-27 19:36 | -4.52709 | -66.97486 | 34872 ft | 462 kts | 189° |
| 2026-04-27 19:36 | -4.65400 | -66.99658 | 34866 ft | 462 kts | 188° |
| 2026-04-27 19:37 | -4.78045 | -67.01843 | 34871 ft | 462 kts | 189° |
| 2026-04-27 19:37 | -4.90764 | -67.04008 | 34869 ft | 462 kts | 189° |
| 2026-04-27 19:38 | -5.03393 | -67.06223 | 34866 ft | 462 kts | 189° |
| 2026-04-27 19:38 | -5.16039 | -67.08399 | 34868 ft | 462 kts | 188° |
| 2026-04-27 19:39 | -5.28673 | -67.10569 | 34869 ft | 462 kts | 188° |
| 2026-04-27 19:39 | -5.41347 | -67.12762 | 34868 ft | 462 kts | 188° |
| 2026-04-27 19:40 | -5.54072 | -67.14944 | 34867 ft | 463 kts | 188° |
| 2026-04-27 19:40 | -5.66789 | -67.17171 | 34865 ft | 464 kts | 188° |
| 2026-04-27 19:41 | -5.79474 | -67.19324 | 34868 ft | 465 kts | 189° |
| 2026-04-27 19:41 | -5.92190 | -67.21548 | 34869 ft | 465 kts | 188° |
| 2026-04-27 19:42 | -6.05014 | -67.23764 | 34873 ft | 466 kts | 188° |
| 2026-04-27 19:42 | -6.17797 | -67.25980 | 34868 ft | 467 kts | 188° |
| 2026-04-27 19:43 | -6.30559 | -67.28184 | 34868 ft | 468 kts | 188° |
| 2026-04-27 19:43 | -6.43414 | -67.30410 | 34867 ft | 468 kts | 188° |
| 2026-04-27 19:44 | -6.56305 | -67.32637 | 34866 ft | 469 kts | 188° |
| 2026-04-27 19:44 | -6.69119 | -67.34871 | 34867 ft | 469 kts | 189° |
| 2026-04-27 19:45 | -6.82017 | -67.37114 | 34868 ft | 469 kts | 187° |
| 2026-04-27 19:45 | -6.94851 | -67.39321 | 34869 ft | 470 kts | 189° |
| 2026-04-27 19:46 | -7.07790 | -67.41570 | 34871 ft | 470 kts | 188° |
| 2026-04-27 19:46 | -7.20616 | -67.43816 | 34871 ft | 470 kts | 188° |
| 2026-04-27 19:47 | -7.33533 | -67.46039 | 34876 ft | 470 kts | 188° |
| 2026-04-27 19:47 | -7.46388 | -67.48316 | 34872 ft | 470 kts | 188° |
| 2026-04-27 19:48 | -7.59299 | -67.50567 | 34874 ft | 470 kts | 188° |
| 2026-04-27 19:48 | -7.72138 | -67.52765 | 34873 ft | 470 kts | 188° |
| 2026-04-27 19:49 | -7.85068 | -67.55021 | 34876 ft | 470 kts | 188° |
| 2026-04-27 19:49 | -7.97902 | -67.57259 | 34868 ft | 470 kts | 189° |
| 2026-04-27 19:50 | -8.10784 | -67.59509 | 34874 ft | 470 kts | 188° |
| 2026-04-27 19:50 | -8.23743 | -67.61795 | 34879 ft | 470 kts | 188° |
| 2026-04-27 19:51 | -8.36557 | -67.64035 | 34881 ft | 470 kts | 188° |
| 2026-04-27 19:51 | -8.49462 | -67.66282 | 34883 ft | 470 kts | 189° |
| 2026-04-27 19:52 | -8.60994 | -67.68347 | 34883 ft | 470 kts | 188° |
| 2026-04-27 19:52 | -8.72009 | -67.70249 | 34880 ft | 469 kts | 189° |
| 2026-04-27 19:53 | -8.91288 | -67.73603 | 34878 ft | 469 kts | 189° |
| 2026-04-27 19:53 | -9.04172 | -67.75851 | 34877 ft | 469 kts | 189° |
| 2026-04-27 19:54 | -9.17021 | -67.78113 | 34876 ft | 469 kts | 188° |
| 2026-04-27 19:54 | -9.29853 | -67.80378 | 34881 ft | 469 kts | 189° |
| 2026-04-27 19:55 | -9.42680 | -67.82623 | 34882 ft | 469 kts | 189° |
| 2026-04-27 19:55 | -9.55525 | -67.84882 | 34888 ft | 469 kts | 189° |
| 2026-04-27 19:56 | -9.68396 | -67.87147 | 34902 ft | 469 kts | 189° |
| 2026-04-27 19:56 | -9.76252 | -67.88536 | 34909 ft | 470 kts | 189° |
| 2026-04-27 19:57 | -9.82713 | -67.89676 | 34910 ft | 470 kts | 189° |
| 2026-04-27 19:57 | -9.89152 | -67.89990 | 34909 ft | 465 kts | 167° |
| 2026-04-27 19:58 | -9.95494 | -67.88622 | 34914 ft | 467 kts | 166° |
| 2026-04-27 19:58 | -10.07485 | -67.85821 | 34898 ft | 468 kts | 166° |
| 2026-04-27 19:59 | -10.20227 | -67.82798 | 34883 ft | 469 kts | 166° |
| 2026-04-27 19:59 | -10.32907 | -67.79817 | 34884 ft | 469 kts | 166° |
| 2026-04-27 20:00 | -10.45583 | -67.76789 | 34884 ft | 470 kts | 166° |
| 2026-04-27 20:00 | -10.58378 | -67.73734 | 34886 ft | 471 kts | 166° |
| 2026-04-27 20:01 | -10.71082 | -67.70757 | 34888 ft | 471 kts | 167° |
| 2026-04-27 20:01 | -10.83943 | -67.67869 | 34887 ft | 472 kts | 168° |
| 2026-04-27 20:02 | -10.93962 | -67.65595 | 34890 ft | 471 kts | 167° |
| 2026-04-27 20:02 | -11.06290 | -67.62804 | 34889 ft | 471 kts | 167° |
| 2026-04-27 20:03 | -11.19119 | -67.59884 | 34890 ft | 472 kts | 168° |
| 2026-04-27 20:03 | -11.31913 | -67.56980 | 34893 ft | 472 kts | 168° |
| 2026-04-27 20:04 | -11.42584 | -67.54551 | 34892 ft | 472 kts | 168° |
| 2026-04-27 20:04 | -11.55450 | -67.51630 | 34897 ft | 472 kts | 167° |
| 2026-04-27 20:05 | -11.68224 | -67.48720 | 34904 ft | 472 kts | 168° |
| 2026-04-27 20:05 | -11.81005 | -67.45827 | 34904 ft | 472 kts | 168° |
| 2026-04-27 20:06 | -11.93867 | -67.42889 | 34902 ft | 472 kts | 167° |
| 2026-04-27 20:06 | -12.06649 | -67.39966 | 34902 ft | 472 kts | 167° |
| 2026-04-27 20:07 | -12.19450 | -67.37048 | 34903 ft | 472 kts | 167° |
| 2026-04-27 20:07 | -12.29002 | -67.34828 | 34900 ft | 473 kts | 167° |
| 2026-04-27 20:08 | -12.39734 | -67.32417 | 34898 ft | 473 kts | 167° |
| 2026-04-27 20:08 | -12.51518 | -67.29709 | 34899 ft | 473 kts | 167° |
| 2026-04-27 20:09 | -12.64314 | -67.26748 | 34899 ft | 473 kts | 167° |
| 2026-04-27 20:09 | -12.77111 | -67.23800 | 34896 ft | 473 kts | 167° |
| 2026-04-27 20:10 | -12.89990 | -67.20898 | 34894 ft | 472 kts | 167° |
| 2026-04-27 20:10 | -13.02739 | -67.17988 | 34896 ft | 471 kts | 168° |
| 2026-04-27 20:11 | -13.15575 | -67.15070 | 34896 ft | 471 kts | 168° |
| 2026-04-27 20:11 | -13.28372 | -67.12183 | 34895 ft | 471 kts | 168° |
| 2026-04-27 20:12 | -13.41086 | -67.09320 | 34896 ft | 470 kts | 168° |
| 2026-04-27 20:12 | -13.53891 | -67.06390 | 34897 ft | 470 kts | 168° |
| 2026-04-27 20:13 | -13.66662 | -67.03485 | 34895 ft | 469 kts | 169° |
| 2026-04-27 20:13 | -13.79399 | -67.00577 | 34898 ft | 469 kts | 168° |
| 2026-04-27 20:14 | -13.92104 | -66.97671 | 34898 ft | 469 kts | 169° |
| 2026-04-27 20:14 | -14.04885 | -66.94793 | 34898 ft | 469 kts | 168° |
| 2026-04-27 20:15 | -14.17570 | -66.91841 | 34904 ft | 469 kts | 169° |
| 2026-04-27 20:15 | -14.28792 | -66.89274 | 34903 ft | 470 kts | 169° |
| 2026-04-27 20:16 | -14.39939 | -66.86724 | 34908 ft | 470 kts | 169° |
| 2026-04-27 20:16 | -14.52690 | -66.83857 | 34911 ft | 471 kts | 169° |
| 2026-04-27 20:17 | -14.60269 | -66.82115 | 34908 ft | 471 kts | 169° |
| 2026-04-27 20:17 | -14.66662 | -66.80664 | 34912 ft | 471 kts | 169° |
| 2026-04-27 20:18 | -14.73040 | -66.79217 | 34915 ft | 471 kts | 169° |
| 2026-04-27 20:18 | -14.79466 | -66.77758 | 34918 ft | 471 kts | 169° |
| 2026-04-27 20:19 | -14.85853 | -66.76306 | 34917 ft | 471 kts | 169° |
| 2026-04-27 20:19 | -14.92271 | -66.74848 | 34915 ft | 471 kts | 169° |
| 2026-04-27 20:20 | -14.98656 | -66.73395 | 34923 ft | 471 kts | 169° |
| 2026-04-27 20:20 | -15.05062 | -66.71937 | 34930 ft | 472 kts | 169° |
| 2026-04-27 20:21 | -15.11496 | -66.70471 | 34934 ft | 472 kts | 169° |
| 2026-04-27 20:21 | -15.17909 | -66.69010 | 34938 ft | 472 kts | 169° |
| 2026-04-27 20:22 | -15.24305 | -66.67551 | 34949 ft | 472 kts | 170° |
| 2026-04-27 20:22 | -15.30742 | -66.66082 | 34951 ft | 473 kts | 170° |
| 2026-04-27 20:23 | -15.37149 | -66.64619 | 34954 ft | 472 kts | 170° |
| 2026-04-27 20:23 | -15.43594 | -66.63147 | 34964 ft | 473 kts | 170° |
| 2026-04-27 20:24 | -15.49999 | -66.61683 | 34968 ft | 473 kts | 170° |
| 2026-04-27 20:24 | -15.56431 | -66.60211 | 34977 ft | 473 kts | 170° |
| 2026-04-27 20:25 | -15.62877 | -66.58736 | 34981 ft | 473 kts | 170° |
| 2026-04-27 20:25 | -15.69309 | -66.57276 | 34986 ft | 474 kts | 170° |
| 2026-04-27 20:26 | -15.75711 | -66.55823 | 34994 ft | 474 kts | 170° |
| 2026-04-27 20:26 | -15.82188 | -66.54353 | 35002 ft | 474 kts | 170° |
| 2026-04-27 20:27 | -15.88601 | -66.52896 | 35015 ft | 475 kts | 170° |
| 2026-04-27 20:27 | -15.95069 | -66.51425 | 35022 ft | 475 kts | 170° |
| 2026-04-27 20:28 | -16.01535 | -66.49955 | 35035 ft | 475 kts | 170° |
| 2026-04-27 20:28 | -16.06888 | -66.48737 | 35031 ft | 475 kts | 170° |
| 2026-04-27 20:29 | -16.14461 | -66.47012 | 35046 ft | 476 kts | 170° |
| 2026-04-27 20:29 | -16.20925 | -66.45539 | 35054 ft | 476 kts | 170° |
| 2026-04-27 20:30 | -16.27372 | -66.44068 | 35070 ft | 476 kts | 170° |
| 2026-04-27 20:30 | -16.33870 | -66.42585 | 35081 ft | 477 kts | 170° |
| 2026-04-27 20:31 | -16.40324 | -66.41111 | 35078 ft | 477 kts | 170° |
| 2026-04-27 20:31 | -16.46798 | -66.39632 | 35094 ft | 477 kts | 170° |
| 2026-04-27 20:32 | -16.53305 | -66.38143 | 35125 ft | 477 kts | 170° |
| 2026-04-27 20:32 | -16.59781 | -66.36662 | 35138 ft | 477 kts | 170° |
| 2026-04-27 20:33 | -16.66277 | -66.35180 | 35145 ft | 478 kts | 170° |
| 2026-04-27 20:33 | -16.72756 | -66.33708 | 35159 ft | 477 kts | 170° |
| 2026-04-27 20:34 | -16.79250 | -66.32230 | 35175 ft | 477 kts | 170° |
| 2026-04-27 20:34 | -16.85769 | -66.30747 | 35204 ft | 478 kts | 169° |
| 2026-04-27 20:35 | -16.92241 | -66.29273 | 35200 ft | 478 kts | 169° |
| 2026-04-27 20:35 | -16.98739 | -66.27795 | 35303 ft | 478 kts | 169° |
| 2026-04-27 20:36 | -17.05266 | -66.26309 | 35312 ft | 478 kts | 169° |
| 2026-04-27 20:36 | -17.11741 | -66.24833 | 35283 ft | 478 kts | 169° |
| 2026-04-27 20:37 | -17.18268 | -66.23345 | 35252 ft | 478 kts | 169° |
| 2026-04-27 20:37 | -17.24767 | -66.21862 | 35229 ft | 478 kts | 169° |
| 2026-04-27 20:38 | -17.31256 | -66.20380 | 35216 ft | 478 kts | 170° |
| 2026-04-27 20:38 | -17.37781 | -66.18890 | 35215 ft | 479 kts | 170° |
| 2026-04-27 20:39 | -17.44297 | -66.17625 | 35218 ft | 477 kts | 174° |
| 2026-04-27 20:39 | -17.54686 | -66.16013 | 35204 ft | 477 kts | 173° |
| 2026-04-27 20:40 | -17.67793 | -66.13922 | 35161 ft | 478 kts | 174° |
| 2026-04-27 20:40 | -17.75116 | -66.12748 | 35114 ft | 478 kts | 174° |
| 2026-04-27 20:41 | -17.82547 | -66.11593 | 35112 ft | 478 kts | 174° |
| 2026-04-27 20:41 | -17.90147 | -66.10410 | 35418 ft | 479 kts | 174° |
| 2026-04-27 20:42 | -17.93456 | -66.09897 | 35606 ft | 480 kts | 174° |
| 2026-04-27 20:42 | -17.96730 | -66.09387 | 35851 ft | 481 kts | 174° |
| 2026-04-27 20:42 | -18.00044 | -66.08870 | 36095 ft | 481 kts | 174° |
| 2026-04-27 20:42 | -18.03367 | -66.08352 | 36309 ft | 482 kts | 174° |
| 2026-04-27 20:43 | -18.06695 | -66.07833 | 36527 ft | 482 kts | 174° |
| 2026-04-27 20:43 | -18.10013 | -66.07316 | 36735 ft | 482 kts | 174° |
| 2026-04-27 20:43 | -18.13334 | -66.06797 | 36945 ft | 483 kts | 174° |
| 2026-04-27 20:43 | -18.16648 | -66.06280 | 37112 ft | 483 kts | 174° |
| 2026-04-27 20:44 | -18.25222 | -66.04950 | 37116 ft | 482 kts | 175° |
| 2026-04-27 20:44 | -18.35271 | -66.03365 | 37115 ft | 483 kts | 175° |
| 2026-04-27 20:45 | -18.45489 | -66.01775 | 37111 ft | 483 kts | 174° |
| 2026-04-27 20:45 | -18.52694 | -66.00646 | 37113 ft | 483 kts | 175° |
| 2026-04-27 20:46 | -18.59351 | -65.99609 | 37106 ft | 483 kts | 175° |
| 2026-04-27 20:46 | -18.66832 | -65.98443 | 37103 ft | 482 kts | 175° |
| 2026-04-27 20:47 | -18.73470 | -65.97406 | 37102 ft | 482 kts | 175° |
| 2026-04-27 20:47 | -18.86228 | -65.95424 | 37089 ft | 482 kts | 175° |
| 2026-04-27 20:48 | -18.97335 | -65.93693 | 37066 ft | 481 kts | 175° |
| 2026-04-27 20:48 | -19.12740 | -65.91283 | 37053 ft | 480 kts | 176° |
| 2026-04-27 20:49 | -19.25982 | -65.89193 | 37038 ft | 480 kts | 175° |
| 2026-04-27 20:49 | -19.39212 | -65.87076 | 37038 ft | 480 kts | 176° |
| 2026-04-27 20:50 | -19.52219 | -65.85085 | 37029 ft | 479 kts | 176° |
| 2026-04-27 20:50 | -19.61497 | -65.83608 | 37012 ft | 479 kts | 176° |
| 2026-04-27 20:51 | -19.69381 | -65.82432 | 37004 ft | 479 kts | 176° |
| 2026-04-27 20:51 | -19.82316 | -65.80397 | 36982 ft | 478 kts | 176° |
| 2026-04-27 20:52 | -19.88287 | -65.79465 | 36969 ft | 477 kts | 176° |
| 2026-04-27 20:52 | -19.94854 | -65.78441 | 36954 ft | 477 kts | 176° |
| 2026-04-27 20:53 | -20.01755 | -65.77362 | 36910 ft | 477 kts | 176° |
| 2026-04-27 20:53 | -20.08340 | -65.76348 | 36936 ft | 479 kts | 177° |
| 2026-04-27 20:54 | -20.22876 | -65.74150 | 36883 ft | 476 kts | 177° |
| 2026-04-27 20:55 | -20.29824 | -65.73036 | 36867 ft | 476 kts | 176° |
| 2026-04-27 20:55 | -20.36374 | -65.72015 | 36872 ft | 475 kts | 177° |
| 2026-04-27 20:56 | -20.44225 | -65.70797 | 36852 ft | 475 kts | 177° |
| 2026-04-27 20:56 | -20.57328 | -65.68753 | 36850 ft | 475 kts | 177° |
| 2026-04-27 20:57 | -20.70390 | -65.66696 | 36853 ft | 474 kts | 178° |
| 2026-04-27 20:57 | -20.83498 | -65.64696 | 36859 ft | 474 kts | 178° |
| 2026-04-27 20:58 | -20.96551 | -65.62666 | 36875 ft | 474 kts | 178° |
| 2026-04-27 20:58 | -21.09523 | -65.60593 | 36883 ft | 474 kts | 178° |
| 2026-04-27 20:59 | -21.19250 | -65.59064 | 36883 ft | 473 kts | 178° |
| 2026-04-27 20:59 | -21.29696 | -65.57482 | 36877 ft | 473 kts | 178° |
| 2026-04-27 21:00 | -21.41994 | -65.55569 | 36864 ft | 473 kts | 178° |
| 2026-04-27 21:00 | -21.50855 | -65.54153 | 36865 ft | 472 kts | 178° |
| 2026-04-27 21:01 | -21.58959 | -65.52875 | 36843 ft | 472 kts | 178° |
| 2026-04-27 21:01 | -21.65470 | -65.51852 | 36866 ft | 472 kts | 178° |
| 2026-04-27 21:02 | -21.71966 | -65.50829 | 36828 ft | 472 kts | 178° |
| 2026-04-27 21:02 | -21.78456 | -65.49806 | 36826 ft | 472 kts | 178° |
| 2026-04-27 21:03 | -21.84955 | -65.48780 | 36806 ft | 472 kts | 178° |
| 2026-04-27 21:03 | -21.91462 | -65.47751 | 36823 ft | 471 kts | 178° |
| 2026-04-27 21:04 | -21.98271 | -65.46674 | 36849 ft | 473 kts | 178° |
| 2026-04-27 21:04 | -22.04729 | -65.45651 | 36854 ft | 472 kts | 178° |
| 2026-04-27 21:05 | -22.11221 | -65.45040 | 36871 ft | 462 kts | 188° |
| 2026-04-27 21:05 | -22.20704 | -65.45134 | 36880 ft | 463 kts | 188° |
| 2026-04-27 21:06 | -22.33598 | -65.45307 | 36890 ft | 464 kts | 188° |
| 2026-04-27 21:06 | -22.46493 | -65.45442 | 36908 ft | 463 kts | 188° |
| 2026-04-27 21:07 | -22.59291 | -65.45602 | 36922 ft | 461 kts | 190° |
| 2026-04-27 21:07 | -22.72239 | -65.45758 | 36920 ft | 462 kts | 189° |
| 2026-04-27 21:08 | -22.85078 | -65.45898 | 36928 ft | 460 kts | 189° |
| 2026-04-27 21:08 | -22.97825 | -65.46069 | 36920 ft | 460 kts | 189° |
| 2026-04-27 21:09 | -23.07032 | -65.46173 | 36909 ft | 459 kts | 189° |
| 2026-04-27 21:09 | -23.13438 | -65.46262 | 36920 ft | 461 kts | 189° |
| 2026-04-27 21:10 | -23.20874 | -65.46352 | 36930 ft | 462 kts | 189° |
| 2026-04-27 21:10 | -23.27300 | -65.46430 | 36911 ft | 462 kts | 189° |
| 2026-04-27 21:11 | -23.33676 | -65.46508 | 36932 ft | 461 kts | 189° |
| 2026-04-27 21:11 | -23.41685 | -65.46598 | 36931 ft | 460 kts | 189° |
| 2026-04-27 21:12 | -23.48105 | -65.46684 | 36947 ft | 461 kts | 189° |
| 2026-04-27 21:12 | -23.54545 | -65.46763 | 36969 ft | 462 kts | 189° |
| 2026-04-27 21:13 | -23.60980 | -65.46842 | 36994 ft | 461 kts | 189° |
| 2026-04-27 21:13 | -23.67381 | -65.46920 | 37010 ft | 464 kts | 190° |
| 2026-04-27 21:14 | -23.73807 | -65.47000 | 37005 ft | 461 kts | 190° |
| 2026-04-27 21:14 | -23.80247 | -65.47081 | 37036 ft | 462 kts | 190° |
| 2026-04-27 21:15 | -23.90580 | -65.47220 | 37043 ft | 464 kts | 190° |
| 2026-04-27 21:15 | -23.97038 | -65.47290 | 37061 ft | 462 kts | 191° |
| 2026-04-27 21:16 | -24.03474 | -65.47369 | 37040 ft | 462 kts | 191° |
| 2026-04-27 21:16 | -24.09893 | -65.47449 | 37100 ft | 462 kts | 191° |
| 2026-04-27 21:17 | -24.16316 | -65.47529 | 37070 ft | 461 kts | 190° |
| 2026-04-27 21:17 | -24.26086 | -65.47652 | 37105 ft | 462 kts | 190° |
| 2026-04-27 21:18 | -24.33724 | -65.47745 | 37122 ft | 462 kts | 191° |
| 2026-04-27 21:18 | -24.40154 | -65.47827 | 37108 ft | 462 kts | 191° |
| 2026-04-27 21:19 | -24.46574 | -65.47907 | 37128 ft | 463 kts | 190° |
| 2026-04-27 21:19 | -24.53233 | -65.47991 | 37139 ft | 462 kts | 191° |
| 2026-04-27 21:20 | -24.67081 | -65.48145 | 37159 ft | 460 kts | 192° |
| 2026-04-27 21:20 | -24.73496 | -65.48245 | 37163 ft | 461 kts | 191° |
| 2026-04-27 21:21 | -24.79920 | -65.48326 | 37157 ft | 461 kts | 191° |
| 2026-04-27 21:21 | -24.86311 | -65.48207 | 37148 ft | 473 kts | 180° |
| 2026-04-27 21:22 | -24.92859 | -65.46972 | 37166 ft | 476 kts | 180° |
| 2026-04-27 21:22 | -25.00977 | -65.45470 | 37163 ft | 477 kts | 180° |
| 2026-04-27 21:23 | -25.14013 | -65.43026 | 37166 ft | 477 kts | 181° |
| 2026-04-27 21:23 | -25.27138 | -65.40592 | 37166 ft | 477 kts | 181° |
| 2026-04-27 21:24 | -25.40166 | -65.38144 | 37157 ft | 478 kts | 181° |
| 2026-04-27 21:24 | -25.46596 | -65.36991 | 37147 ft | 479 kts | 181° |
| 2026-04-27 21:25 | -25.55824 | -65.35249 | 37143 ft | 481 kts | 181° |
| 2026-04-27 21:25 | -25.61976 | -65.34089 | 37180 ft | 482 kts | 181° |
| 2026-04-27 21:26 | -25.67556 | -65.33046 | 37188 ft | 481 kts | 182° |
| 2026-04-27 21:26 | -25.74108 | -65.31810 | 37103 ft | 479 kts | 182° |
| 2026-04-27 21:27 | -25.81091 | -65.30496 | 37157 ft | 479 kts | 181° |
| 2026-04-27 21:27 | -25.93120 | -65.28279 | 37147 ft | 478 kts | 181° |
| 2026-04-27 21:28 | -26.03379 | -65.26282 | 37136 ft | 476 kts | 181° |
| 2026-04-27 21:28 | -26.16367 | -65.23835 | 37147 ft | 472 kts | 182° |
| 2026-04-27 21:29 | -26.29317 | -65.21394 | 37147 ft | 471 kts | 182° |
| 2026-04-27 21:29 | -26.42238 | -65.18922 | 37149 ft | 471 kts | 182° |
| 2026-04-27 21:30 | -26.55083 | -65.16481 | 37147 ft | 470 kts | 182° |
| 2026-04-27 21:30 | -26.68010 | -65.14003 | 37142 ft | 470 kts | 183° |
| 2026-04-27 21:31 | -26.80898 | -65.11571 | 37141 ft | 471 kts | 182° |
| 2026-04-27 21:31 | -26.93815 | -65.09073 | 37144 ft | 471 kts | 182° |
| 2026-04-27 21:32 | -27.03383 | -65.07190 | 37156 ft | 470 kts | 183° |
| 2026-04-27 21:32 | -27.16292 | -65.04698 | 37160 ft | 472 kts | 182° |
| 2026-04-27 21:33 | -27.29142 | -65.02161 | 37139 ft | 472 kts | 182° |
| 2026-04-27 21:33 | -27.42075 | -64.99592 | 37113 ft | 469 kts | 184° |
| 2026-04-27 21:34 | -27.54986 | -64.97091 | 37115 ft | 469 kts | 183° |
| 2026-04-27 21:34 | -27.67798 | -64.94553 | 37130 ft | 470 kts | 181° |
| 2026-04-27 21:35 | -27.77076 | -64.92763 | 37144 ft | 467 kts | 183° |
| 2026-04-27 21:35 | -27.89903 | -64.90434 | 37151 ft | 466 kts | 184° |
| 2026-04-27 21:36 | -28.02763 | -64.88011 | 37151 ft | 468 kts | 182° |
| 2026-04-27 21:36 | -28.15617 | -64.85649 | 37147 ft | 466 kts | 183° |
| 2026-04-27 21:37 | -28.28347 | -64.83301 | 37142 ft | 468 kts | 181° |
| 2026-04-27 21:37 | -28.41158 | -64.80870 | 37136 ft | 466 kts | 181° |
| 2026-04-27 21:38 | -28.53947 | -64.78500 | 37130 ft | 466 kts | 181° |
| 2026-04-27 21:38 | -28.64811 | -64.76395 | 37123 ft | 467 kts | 179° |
| 2026-04-27 21:39 | -28.67472 | -64.75809 | 37121 ft | 466 kts | 179° |
| 2026-04-27 21:39 | -28.75565 | -64.74031 | 37126 ft | 466 kts | 179° |
| 2026-04-27 21:40 | -28.88318 | -64.71314 | 37126 ft | 465 kts | 179° |
| 2026-04-27 21:40 | -28.94844 | -64.69914 | 37120 ft | 464 kts | 179° |
| 2026-04-27 21:41 | -29.01156 | -64.68553 | 37118 ft | 464 kts | 178° |
| 2026-04-27 21:41 | -29.07518 | -64.67179 | 37118 ft | 463 kts | 178° |
| 2026-04-27 21:42 | -29.13867 | -64.65806 | 37117 ft | 463 kts | 178° |
| 2026-04-27 21:42 | -29.20196 | -64.64435 | 37012 ft | 463 kts | 178° |
| 2026-04-27 21:43 | -29.23291 | -64.63763 | 36752 ft | 457 kts | 178° |
| 2026-04-27 21:43 | -29.26403 | -64.63087 | 36326 ft | 451 kts | 177° |
| 2026-04-27 21:43 | -29.29478 | -64.62420 | 35699 ft | 451 kts | 176° |
| 2026-04-27 21:43 | -29.32559 | -64.61751 | 35140 ft | 449 kts | 176° |
| 2026-04-27 21:44 | -29.35623 | -64.61085 | 34672 ft | 445 kts | 175° |
| 2026-04-27 21:44 | -29.38657 | -64.60425 | 34196 ft | 442 kts | 175° |
| 2026-04-27 21:44 | -29.41669 | -64.59771 | 33638 ft | 439 kts | 174° |
| 2026-04-27 21:44 | -29.44666 | -64.59118 | 33128 ft | 435 kts | 174° |
| 2026-04-27 21:45 | -29.47601 | -64.58480 | 32911 ft | 424 kts | 174° |
| 2026-04-27 21:45 | -29.50480 | -64.57852 | 32413 ft | 420 kts | 174° |
| 2026-04-27 21:45 | -29.53379 | -64.57220 | 31504 ft | 428 kts | 173° |
| 2026-04-27 21:45 | -29.56294 | -64.56585 | 30610 ft | 435 kts | 173° |
| 2026-04-27 21:46 | -29.59336 | -64.55927 | 29626 ft | 440 kts | 174° |
| 2026-04-27 21:46 | -29.62324 | -64.55368 | 28874 ft | 440 kts | 174° |
| 2026-04-27 21:46 | -29.65344 | -64.54801 | 28299 ft | 436 kts | 174° |
| 2026-04-27 21:46 | -29.68327 | -64.54237 | 27732 ft | 432 kts | 174° |
| 2026-04-27 21:47 | -29.71272 | -64.53676 | 27185 ft | 428 kts | 174° |
| 2026-04-27 21:47 | -29.74211 | -64.53117 | 26641 ft | 424 kts | 174° |
| 2026-04-27 21:47 | -29.77110 | -64.52564 | 26110 ft | 420 kts | 174° |
| 2026-04-27 21:47 | -29.79990 | -64.52015 | 25586 ft | 415 kts | 174° |
| 2026-04-27 21:48 | -29.82803 | -64.51479 | 25089 ft | 406 kts | 174° |
| 2026-04-27 21:48 | -29.85561 | -64.50953 | 24598 ft | 397 kts | 174° |
| 2026-04-27 21:48 | -29.88266 | -64.50436 | 24115 ft | 390 kts | 174° |
| 2026-04-27 21:48 | -29.90874 | -64.49938 | 23631 ft | 383 kts | 174° |
| 2026-04-27 21:49 | -29.93491 | -64.49437 | 23058 ft | 376 kts | 174° |
| 2026-04-27 21:49 | -29.96080 | -64.48890 | 22490 ft | 371 kts | 173° |
| 2026-04-27 21:49 | -29.98566 | -64.48359 | 21937 ft | 366 kts | 173° |
| 2026-04-27 21:49 | -30.01046 | -64.47832 | 21392 ft | 361 kts | 173° |
| 2026-04-27 21:50 | -30.03515 | -64.47307 | 20845 ft | 357 kts | 174° |
| 2026-04-27 21:50 | -30.05937 | -64.46792 | 20322 ft | 352 kts | 174° |
| 2026-04-27 21:50 | -30.08337 | -64.46282 | 19801 ft | 348 kts | 174° |
| 2026-04-27 21:50 | -30.10706 | -64.45779 | 19292 ft | 345 kts | 174° |
| 2026-04-27 21:51 | -30.13056 | -64.45279 | 18779 ft | 342 kts | 174° |
| 2026-04-27 21:51 | -30.15384 | -64.44784 | 18268 ft | 339 kts | 174° |
| 2026-04-27 21:51 | -30.17702 | -64.44290 | 17701 ft | 336 kts | 174° |
| 2026-04-27 21:51 | -30.19986 | -64.43803 | 17140 ft | 332 kts | 174° |
| 2026-04-27 21:52 | -30.22256 | -64.43319 | 16593 ft | 329 kts | 174° |
| 2026-04-27 21:52 | -30.24470 | -64.42847 | 16060 ft | 326 kts | 173° |
| 2026-04-27 21:52 | -30.26701 | -64.42371 | 15539 ft | 323 kts | 173° |
| 2026-04-27 21:52 | -30.28899 | -64.41902 | 15024 ft | 321 kts | 173° |
| 2026-04-27 21:53 | -30.31089 | -64.41434 | 14521 ft | 318 kts | 173° |
| 2026-04-27 21:53 | -30.33256 | -64.40971 | 14018 ft | 315 kts | 173° |
| 2026-04-27 21:53 | -30.35394 | -64.40514 | 13482 ft | 312 kts | 173° |
| 2026-04-27 21:53 | -30.37518 | -64.40059 | 12934 ft | 309 kts | 172° |
| 2026-04-27 21:54 | -30.39645 | -64.39601 | 12396 ft | 311 kts | 170° |
| 2026-04-27 21:54 | -30.41643 | -64.38642 | 11847 ft | 318 kts | 147° |
| 2026-04-27 21:54 | -30.43417 | -64.37076 | 11324 ft | 320 kts | 144° |
| 2026-04-27 21:54 | -30.45194 | -64.35509 | 10799 ft | 322 kts | 144° |
| 2026-04-27 21:55 | -30.46979 | -64.33924 | 10288 ft | 323 kts | 143° |
| 2026-04-27 21:55 | -30.48742 | -64.32354 | 9775 ft | 323 kts | 143° |
| 2026-04-27 21:55 | -30.50527 | -64.30762 | 9211 ft | 324 kts | 143° |
| 2026-04-27 21:55 | -30.52312 | -64.29168 | 8666 ft | 324 kts | 143° |
| 2026-04-27 21:56 | -30.54109 | -64.27562 | 8115 ft | 325 kts | 143° |
| 2026-04-27 21:56 | -30.57664 | -64.24383 | 7402 ft | 314 kts | 143° |
| 2026-04-27 21:56 | -30.59440 | -64.23008 | 7224 ft | 302 kts | 159° |
| 2026-04-27 21:57 | -30.61447 | -64.22606 | 7139 ft | 284 kts | 181° |
| 2026-04-27 21:57 | -30.63375 | -64.22575 | 7103 ft | 269 kts | 180° |
| 2026-04-27 21:57 | -30.65177 | -64.22518 | 7055 ft | 257 kts | 180° |
| 2026-04-27 21:57 | -30.66969 | -64.22459 | 6996 ft | 258 kts | 180° |
| 2026-04-27 21:58 | -30.68771 | -64.22397 | 6927 ft | 259 kts | 180° |
| 2026-04-27 21:58 | -30.70577 | -64.22335 | 6850 ft | 259 kts | 180° |
| 2026-04-27 21:58 | -30.72385 | -64.22273 | 6770 ft | 259 kts | 180° |
| 2026-04-27 21:58 | -30.74192 | -64.22209 | 6712 ft | 260 kts | 180° |
| 2026-04-27 21:59 | -30.76001 | -64.22147 | 6640 ft | 260 kts | 180° |
| 2026-04-27 21:59 | -30.77806 | -64.22083 | 6555 ft | 259 kts | 180° |
| 2026-04-27 21:59 | -30.79583 | -64.22021 | 6487 ft | 259 kts | 180° |
| 2026-04-27 21:59 | -30.81382 | -64.21958 | 6417 ft | 259 kts | 180° |
| 2026-04-27 22:00 | -30.83184 | -64.21895 | 6338 ft | 259 kts | 180° |
| 2026-04-27 22:00 | -30.84985 | -64.21832 | 6259 ft | 258 kts | 180° |
| 2026-04-27 22:00 | -30.86787 | -64.21769 | 6177 ft | 258 kts | 180° |
| 2026-04-27 22:00 | -30.88580 | -64.21705 | 6104 ft | 258 kts | 180° |
| 2026-04-27 22:01 | -30.90317 | -64.21644 | 6040 ft | 258 kts | 180° |
| 2026-04-27 22:01 | -30.92122 | -64.21580 | 6012 ft | 245 kts | 180° |
| 2026-04-27 22:01 | -30.93812 | -64.21521 | 6038 ft | 242 kts | 180° |
| 2026-04-27 22:01 | -30.95493 | -64.21461 | 6024 ft | 242 kts | 180° |
| 2026-04-27 22:02 | -30.97144 | -64.21404 | 6012 ft | 237 kts | 180° |
| 2026-04-27 22:02 | -30.98791 | -64.21362 | 6029 ft | 237 kts | 181° |
| 2026-04-27 22:02 | -31.00409 | -64.21336 | 5953 ft | 227 kts | 181° |
| 2026-04-27 22:02 | -31.01941 | -64.21311 | 5880 ft | 213 kts | 181° |
| 2026-04-27 22:03 | -31.03375 | -64.21287 | 5794 ft | 199 kts | 182° |
| 2026-04-27 22:03 | -31.04755 | -64.21264 | 5585 ft | 197 kts | 181° |
| 2026-04-27 22:03 | -31.06141 | -64.21241 | 5409 ft | 202 kts | 181° |
| 2026-04-27 22:03 | -31.07547 | -64.21217 | 5207 ft | 202 kts | 182° |
| 2026-04-27 22:04 | -31.08955 | -64.21188 | 5043 ft | 202 kts | 181° |
| 2026-04-27 22:04 | -31.10355 | -64.21152 | 5031 ft | 201 kts | 181° |
| 2026-04-27 22:04 | -31.11708 | -64.21126 | 5005 ft | 193 kts | 181° |
| 2026-04-27 22:04 | -31.13052 | -64.21105 | 4800 ft | 191 kts | 182° |
| 2026-04-27 22:05 | -31.14384 | -64.21083 | 4568 ft | 191 kts | 181° |
| 2026-04-27 22:05 | -31.15715 | -64.21061 | 4338 ft | 191 kts | 181° |
| 2026-04-27 22:05 | -31.17050 | -64.21041 | 4090 ft | 192 kts | 181° |
| 2026-04-27 22:05 | -31.18383 | -64.21023 | 3838 ft | 189 kts | 180° |
| 2026-04-27 22:06 | -31.19620 | -64.21004 | 3621 ft | 168 kts | 179° |
| 2026-04-27 22:06 | -31.20781 | -64.20987 | 3407 ft | 167 kts | 178° |
| 2026-04-27 22:06 | -31.21926 | -64.20969 | 3174 ft | 166 kts | 179° |
| 2026-04-27 22:06 | -31.23078 | -64.20953 | 2946 ft | 165 kts | 178° |
| 2026-04-27 22:07 | -31.24225 | -64.20935 | 2716 ft | 163 kts | 178° |
| 2026-04-27 22:07 | -31.25354 | -64.20922 | 2472 ft | 162 kts | 178° |
| 2026-04-27 22:07 | -31.26466 | -64.20909 | 2265 ft | 157 kts | 178° |
| 2026-04-27 22:07 | -31.27557 | -64.20893 | 2027 ft | 157 kts | 177° |
| 2026-04-27 22:08 | -31.28662 | -64.20878 | 1796 ft | 158 kts | 176° |
| 2026-04-27 22:08 | -31.29745 | -64.20859 | 1645 ft | 152 kts | 175° |
| 2026-04-27 22:08 | -31.30694 | -64.20839 | 1616 ft | 114 kts | 180° |
| 2026-04-27 22:08 | -31.31267 | -64.20827 | 1619 ft | 70 kts | 180° |
| 2026-04-27 22:09 | -31.31618 | -64.20835 | 1617 ft | 30 kts | 195° |
| 2026-04-27 22:09 | -31.31770 | -64.20921 | 1620 ft | 11 kts | 216° |
| 2026-04-27 22:09 | -31.31779 | -64.20930 | 1621 ft | 0 kts | 221° |
| 2026-04-27 22:10 | -31.31785 | -64.20942 | 1619 ft | 5 kts | 245° |
| 2026-04-27 22:10 | -31.31775 | -64.21022 | 1624 ft | 11 kts | 333° |
| 2026-04-27 22:10 | -31.31761 | -64.21028 | 1620 ft | 1 kts | 329° |
| 2026-04-27 22:11 | -31.31759 | -64.21030 | 1620 ft | 0 kts | 317° |
| 2026-04-27 22:11 | -31.31758 | -64.21033 | 1617 ft | 1 kts | 302° |
| 2026-04-27 22:11 | -31.31745 | -64.21060 | 1619 ft | 7 kts | 302° |
| 2026-04-27 22:11 | -31.31691 | -64.21101 | 1617 ft | 12 kts | 355° |
| 2026-04-27 22:12 | -31.31606 | -64.21101 | 1620 ft | 11 kts | 0° |
| 2026-04-27 22:12 | -31.31543 | -64.21084 | 1617 ft | 8 kts | 19° |
| 2026-04-27 22:12 | -31.31495 | -64.21081 | 1622 ft | 6 kts | 355° |
| 2026-04-27 22:12 | -31.31474 | -64.21100 | 1618 ft | 3 kts | 292° |
| 2026-04-27 22:13 | -31.31475 | -64.21128 | 1618 ft | 4 kts | 257° |
| 2026-04-27 22:13 | -31.31481 | -64.21159 | 1620 ft | 3 kts | 258° |
| 2026-04-27 22:13 | -31.31485 | -64.21176 | 1617 ft | 1 kts | 255° |
| 2026-04-27 22:13 | -31.31485 | -64.21178 | 1616 ft | 0 kts | 255° |